PWSweather.com
Personal Weather Stations
Station Observations
WILS01
Leuven, WilseleBE 3012

LeuvenWilseleBE 3012

Lat: 50.89518, Lon: 4.69741

Elevation: 120

Station Type: DAVIS VP2

Latest ConditionsUpdated 12:05:02 PM GMT+01:01 Wednesday, May 25, 2016
Currently Today's Max Today's Min Today's Average
Temperature 57.2°F14.0°C 57.4°F14.1°C 44.6°F7.0°C 51.8°F11.0°C
Dew Point 47.5°F8.6°C 48.6°F9.2°C 41.7°F5.4°C 45.8°F7.7°C
Winds Calm Calm 0.9 mph SSW1.4 kmh SSW - 0.2 mph 0.3 kmh
Wind Gusts -- 1.3 mph2.1 kmh - -
Humidity 70% 90% 69% 80%
Pressure 29.99 in1015.6 mb 30.03 in1016.9 mb 29.99 in1015.6 mb -
Hour Temp Dew Point Humidity Winds Wind Gusts Pressure Precip Precip Rate Daily Precip Total
12:05 PM 57.2°F14.0°C 47.5°F8.6°C 70% Calm Calm -- 29.99 in1015.6 mb - 0.00 in0.0 mm 0.00 in0.0 mm
11:54 AM 57.4°F14.1°C 48.0°F8.9°C 71% Calm Calm -- 29.99 in1015.6 mb - 0.00 in0.0 mm 0.00 in0.0 mm
11:44 AM 57.4°F14.1°C 48.4°F9.1°C 72% Calm Calm -- 29.99 in1015.6 mb - 0.00 in0.0 mm 0.00 in0.0 mm
11:34 AM 57.0°F13.9°C 47.7°F8.7°C 71% Calm Calm 0.2 mph0.3 kmh 29.99 in1015.6 mb - 0.00 in0.0 mm 0.00 in0.0 mm
11:24 AM 57.0°F13.9°C 47.7°F8.7°C 70% 0.7 mph NNW1.1 kmh NNW 1.3 mph2.1 kmh 29.99 in1015.6 mb - 0.00 in0.0 mm 0.00 in0.0 mm
11:13 AM 56.8°F13.8°C 47.8°F8.8°C 71% Calm Calm -- 29.99 in1015.6 mb - 0.00 in0.0 mm 0.00 in0.0 mm
11:03 AM 56.7°F13.7°C 46.8°F8.2°C 69% 0.9 mph WSW1.4 kmh WSW -- 29.99 in1015.6 mb - 0.00 in0.0 mm 0.00 in0.0 mm
10:53 AM 57.0°F13.9°C 47.3°F8.5°C 70% Calm Calm 0.4 mph0.6 kmh 29.99 in1015.6 mb - 0.00 in0.0 mm 0.00 in0.0 mm
10:43 AM 56.8°F13.8°C 47.1°F8.4°C 70% Calm Calm 0.2 mph0.3 kmh 29.99 in1015.6 mb - 0.00 in0.0 mm 0.00 in0.0 mm
10:33 AM 56.5°F13.6°C 47.1°F8.4°C 71% Calm Calm 0.4 mph0.6 kmh 29.99 in1015.6 mb - 0.00 in0.0 mm 0.00 in0.0 mm
10:22 AM 56.1°F13.4°C 46.6°F8.1°C 70% Calm Calm 0.2 mph0.3 kmh 29.99 in1015.6 mb - 0.00 in0.0 mm 0.00 in0.0 mm
10:12 AM 56.3°F13.5°C 46.9°F8.3°C 71% Calm Calm -- 29.99 in1015.6 mb - 0.00 in0.0 mm 0.00 in0.0 mm
10:02 AM 56.1°F13.4°C 47.8°F8.8°C 73% Calm Calm -- 29.99 in1015.6 mb - 0.00 in0.0 mm 0.00 in0.0 mm
09:51 AM 55.9°F13.3°C 47.5°F8.6°C 73% Calm Calm 0.2 mph0.3 kmh 29.99 in1015.6 mb - 0.00 in0.0 mm 0.00 in0.0 mm
09:41 AM 55.6°F13.1°C 47.8°F8.8°C 75% Calm Calm 0.2 mph0.3 kmh 29.99 in1015.6 mb - 0.00 in0.0 mm 0.00 in0.0 mm
09:30 AM 55.2°F12.9°C 47.7°F8.7°C 75% 0.9 mph SW1.4 kmh SW 0.2 mph0.3 kmh 29.99 in1015.6 mb - 0.00 in0.0 mm 0.00 in0.0 mm
09:20 AM 54.5°F12.5°C 47.5°F8.6°C 77% 0.9 mph SW1.4 kmh SW 0.4 mph0.6 kmh 29.99 in1015.6 mb - 0.00 in0.0 mm 0.00 in0.0 mm
09:10 AM 53.4°F11.9°C 47.1°F8.4°C 79% 0.9 mph SW1.4 kmh SW 0.9 mph1.4 kmh 30.00 in1015.9 mb - 0.00 in0.0 mm 0.00 in0.0 mm
09:00 AM 53.1°F11.7°C 48.6°F9.2°C 84% 0.9 mph SW1.4 kmh SW 1.3 mph2.1 kmh 29.99 in1015.6 mb - 0.00 in0.0 mm 0.00 in0.0 mm
08:49 AM 52.0°F11.1°C 48.2°F9.0°C 87% 0.9 mph W1.4 kmh W 0.7 mph1.1 kmh 30.00 in1015.9 mb - 0.00 in0.0 mm 0.00 in0.0 mm
08:39 AM 51.4°F10.8°C 48.0°F8.9°C 88% 0.9 mph SSW1.4 kmh SSW 0.7 mph1.1 kmh 30.00 in1015.9 mb - 0.00 in0.0 mm 0.00 in0.0 mm
08:29 AM 50.5°F10.3°C 47.5°F8.6°C 89% Calm Calm 0.2 mph0.3 kmh 30.00 in1015.9 mb - 0.00 in0.0 mm 0.00 in0.0 mm
08:19 AM 50.2°F10.1°C 47.1°F8.4°C 89% Calm Calm -- 30.00 in1015.9 mb - 0.00 in0.0 mm 0.00 in0.0 mm
08:08 AM 49.6°F9.8°C 46.8°F8.2°C 90% Calm Calm 0.2 mph0.3 kmh 30.00 in1015.9 mb - 0.00 in0.0 mm 0.00 in0.0 mm
07:58 AM 49.5°F9.7°C 46.6°F8.1°C 90% Calm Calm 0.2 mph0.3 kmh 30.00 in1015.9 mb - 0.00 in0.0 mm 0.00 in0.0 mm
02:26 AM 44.6°F7.0°C 41.9°F5.5°C 90% Calm Calm -- 30.01 in1016.3 mb - 0.00 in0.0 mm 0.00 in0.0 mm
02:16 AM 44.6°F7.0°C 41.9°F5.5°C 90% Calm Calm -- 30.01 in1016.3 mb - 0.00 in0.0 mm 0.00 in0.0 mm
02:06 AM 44.8°F7.1°C 41.9°F5.5°C 89% Calm Calm -- 30.01 in1016.3 mb - 0.00 in0.0 mm 0.00 in0.0 mm
01:55 AM 44.8°F7.1°C 41.7°F5.4°C 89% Calm Calm -- 30.01 in1016.3 mb - 0.00 in0.0 mm 0.00 in0.0 mm
01:25 AM 45.3°F7.4°C 41.9°F5.5°C 88% Calm Calm -- 30.02 in1016.6 mb - 0.00 in0.0 mm 0.00 in0.0 mm
01:14 AM 45.5°F7.5°C 42.1°F5.6°C 88% Calm Calm -- 30.02 in1016.6 mb - 0.00 in0.0 mm 0.00 in0.0 mm
01:04 AM 45.7°F7.6°C 42.1°F5.6°C 87% Calm Calm -- 30.02 in1016.6 mb - 0.00 in0.0 mm 0.00 in0.0 mm
12:53 AM 45.9°F7.7°C 42.3°F5.7°C 87% Calm Calm -- 30.02 in1016.6 mb - 0.00 in0.0 mm 0.00 in0.0 mm
12:43 AM 46.2°F7.9°C 42.6°F5.9°C 87% Calm Calm -- 30.02 in1016.6 mb - 0.00 in0.0 mm 0.00 in0.0 mm
12:33 AM 46.6°F8.1°C 43.0°F6.1°C 87% Calm Calm -- 30.03 in1016.9 mb - 0.00 in0.0 mm 0.00 in0.0 mm
12:22 AM 46.9°F8.3°C 43.3°F6.3°C 87% Calm Calm -- 30.03 in1016.9 mb - 0.00 in0.0 mm 0.00 in0.0 mm
12:12 AM 47.1°F8.4°C 43.5°F6.4°C 87% Calm Calm -- 30.03 in1016.9 mb - 0.00 in0.0 mm 0.00 in0.0 mm